sensor_id;sensor_type;location;lat;lon;timestamp;temperature;humidity
698;DHT22;331;48.414;9.938;2023-06-05T00:00:16;19.50;71.00
698;DHT22;331;48.414;9.938;2023-06-05T00:02:43;19.50;71.20
698;DHT22;331;48.414;9.938;2023-06-05T00:05:11;19.50;71.20
698;DHT22;331;48.414;9.938;2023-06-05T00:07:38;19.50;71.20
698;DHT22;331;48.414;9.938;2023-06-05T00:10:05;19.40;71.00
698;DHT22;331;48.414;9.938;2023-06-05T00:12:32;19.40;71.20
698;DHT22;331;48.414;9.938;2023-06-05T00:14:59;19.40;71.20
698;DHT22;331;48.414;9.938;2023-06-05T00:17:26;19.30;71.00
698;DHT22;331;48.414;9.938;2023-06-05T00:19:53;19.30;71.00
698;DHT22;331;48.414;9.938;2023-06-05T00:22:21;19.30;71.00
698;DHT22;331;48.414;9.938;2023-06-05T00:24:48;19.20;70.90
698;DHT22;331;48.414;9.938;2023-06-05T00:27:15;19.20;71.00
698;DHT22;331;48.414;9.938;2023-06-05T00:29:42;19.20;71.00
698;DHT22;331;48.414;9.938;2023-06-05T00:32:09;19.20;71.10
698;DHT22;331;48.414;9.938;2023-06-05T00:34:36;19.10;71.10
698;DHT22;331;48.414;9.938;2023-06-05T00:37:03;19.10;71.00
698;DHT22;331;48.414;9.938;2023-06-05T00:39:31;19.10;70.90
698;DHT22;331;48.414;9.938;2023-06-05T00:41:58;19.00;70.90
698;DHT22;331;48.414;9.938;2023-06-05T00:44:25;19.00;70.90
698;DHT22;331;48.414;9.938;2023-06-05T00:46:52;19.00;70.90
698;DHT22;331;48.414;9.938;2023-06-05T00:49:19;19.00;71.00
698;DHT22;331;48.414;9.938;2023-06-05T00:51:46;19.00;71.00
698;DHT22;331;48.414;9.938;2023-06-05T00:54:13;19.00;71.00
698;DHT22;331;48.414;9.938;2023-06-05T00:56:41;18.90;70.90
698;DHT22;331;48.414;9.938;2023-06-05T00:59:09;18.90;70.90
698;DHT22;331;48.414;9.938;2023-06-05T01:01:37;18.80;70.70
698;DHT22;331;48.414;9.938;2023-06-05T01:04:05;18.80;70.70
698;DHT22;331;48.414;9.938;2023-06-05T01:06:32;18.80;70.70
698;DHT22;331;48.414;9.938;2023-06-05T01:09:00;18.80;70.70
698;DHT22;331;48.414;9.938;2023-06-05T01:11:28;18.70;70.50
698;DHT22;331;48.414;9.938;2023-06-05T01:14:00;18.70;70.50
698;DHT22;331;48.414;9.938;2023-06-05T01:16:28;18.70;70.60
698;DHT22;331;48.414;9.938;2023-06-05T01:18:58;18.70;70.50
698;DHT22;331;48.414;9.938;2023-06-05T01:21:28;18.70;70.50
698;DHT22;331;48.414;9.938;2023-06-05T01:23:57;18.60;70.60
698;DHT22;331;48.414;9.938;2023-06-05T01:26:24;18.60;70.50
698;DHT22;331;48.414;9.938;2023-06-05T01:28:52;18.60;70.60
698;DHT22;331;48.414;9.938;2023-06-05T01:31:20;18.60;70.70
698;DHT22;331;48.414;9.938;2023-06-05T01:33:49;18.50;70.70
698;DHT22;331;48.414;9.938;2023-06-05T01:36:19;18.50;70.70
698;DHT22;331;48.414;9.938;2023-06-05T01:38:47;18.50;70.60
698;DHT22;331;48.414;9.938;2023-06-05T01:41:16;18.50;70.50
698;DHT22;331;48.414;9.938;2023-06-05T01:43:44;18.50;70.40
698;DHT22;331;48.414;9.938;2023-06-05T01:46:12;18.40;70.20
698;DHT22;331;48.414;9.938;2023-06-05T01:48:39;18.40;70.20
698;DHT22;331;48.414;9.938;2023-06-05T01:51:06;18.40;70.20
698;DHT22;331;48.414;9.938;2023-06-05T01:53:33;18.40;70.30
698;DHT22;331;48.414;9.938;2023-06-05T01:56:02;18.40;70.40
698;DHT22;331;48.414;9.938;2023-06-05T01:58:31;18.30;70.20
698;DHT22;331;48.414;9.938;2023-06-05T02:00:58;18.30;70.20
698;DHT22;331;48.414;9.938;2023-06-05T02:03:25;18.30;70.20
698;DHT22;331;48.414;9.938;2023-06-05T02:05:52;18.30;70.40
698;DHT22;331;48.414;9.938;2023-06-05T02:08:20;18.30;70.40
698;DHT22;331;48.414;9.938;2023-06-05T02:10:48;18.20;70.50
698;DHT22;331;48.414;9.938;2023-06-05T02:13:15;18.20;70.30
698;DHT22;331;48.414;9.938;2023-06-05T02:15:45;18.20;70.40
698;DHT22;331;48.414;9.938;2023-06-05T02:18:12;18.20;70.50
698;DHT22;331;48.414;9.938;2023-06-05T02:20:42;18.10;70.30
698;DHT22;331;48.414;9.938;2023-06-05T02:23:10;18.10;70.30
698;DHT22;331;48.414;9.938;2023-06-05T02:25:36;18.10;70.50
698;DHT22;331;48.414;9.938;2023-06-05T02:28:03;18.10;70.50
698;DHT22;331;48.414;9.938;2023-06-05T02:30:30;18.10;70.40
698;DHT22;331;48.414;9.938;2023-06-05T02:33:00;18.10;70.30
698;DHT22;331;48.414;9.938;2023-06-05T02:35:27;18.00;70.50
698;DHT22;331;48.414;9.938;2023-06-05T02:37:55;18.00;70.50
698;DHT22;331;48.414;9.938;2023-06-05T02:40:22;18.00;70.50
698;DHT22;331;48.414;9.938;2023-06-05T02:42:49;18.00;70.60
698;DHT22;331;48.414;9.938;2023-06-05T02:45:16;17.90;70.60
698;DHT22;331;48.414;9.938;2023-06-05T02:47:43;17.90;70.60
698;DHT22;331;48.414;9.938;2023-06-05T02:50:11;17.90;70.50
698;DHT22;331;48.414;9.938;2023-06-05T02:52:43;17.90;70.60
698;DHT22;331;48.414;9.938;2023-06-05T02:55:15;17.90;70.60
698;DHT22;331;48.414;9.938;2023-06-05T02:57:46;17.90;70.60
698;DHT22;331;48.414;9.938;2023-06-05T03:00:17;17.80;70.60
698;DHT22;331;48.414;9.938;2023-06-05T03:02:50;17.80;70.80
698;DHT22;331;48.414;9.938;2023-06-05T03:05:22;17.80;70.80
698;DHT22;331;48.414;9.938;2023-06-05T03:07:51;17.80;71.00
698;DHT22;331;48.414;9.938;2023-06-05T03:10:19;17.70;70.90
698;DHT22;331;48.414;9.938;2023-06-05T03:12:47;17.70;70.80
698;DHT22;331;48.414;9.938;2023-06-05T03:15:14;17.70;71.00
698;DHT22;331;48.414;9.938;2023-06-05T03:17:44;17.70;71.10
698;DHT22;331;48.414;9.938;2023-06-05T03:20:13;17.70;71.20
698;DHT22;331;48.414;9.938;2023-06-05T03:22:41;17.70;71.30
698;DHT22;331;48.414;9.938;2023-06-05T03:25:09;17.60;71.20
698;DHT22;331;48.414;9.938;2023-06-05T03:27:38;17.60;71.20
698;DHT22;331;48.414;9.938;2023-06-05T03:30:06;17.60;71.20
698;DHT22;331;48.414;9.938;2023-06-05T03:32:40;17.60;71.10
698;DHT22;331;48.414;9.938;2023-06-05T03:35:07;17.60;71.20
698;DHT22;331;48.414;9.938;2023-06-05T03:37:35;17.50;71.30
698;DHT22;331;48.414;9.938;2023-06-05T03:40:05;17.50;71.40
698;DHT22;331;48.414;9.938;2023-06-05T03:42:34;17.50;71.30
698;DHT22;331;48.414;9.938;2023-06-05T03:45:02;17.50;71.40
698;DHT22;331;48.414;9.938;2023-06-05T03:47:29;17.50;71.60
698;DHT22;331;48.414;9.938;2023-06-05T03:49:57;17.50;71.60
698;DHT22;331;48.414;9.938;2023-06-05T03:52:28;17.40;71.50
698;DHT22;331;48.414;9.938;2023-06-05T03:54:55;17.40;71.70
698;DHT22;331;48.414;9.938;2023-06-05T03:57:24;17.40;71.70
698;DHT22;331;48.414;9.938;2023-06-05T03:59:51;17.40;71.80
698;DHT22;331;48.414;9.938;2023-06-05T04:02:18;17.40;71.80
698;DHT22;331;48.414;9.938;2023-06-05T04:04:45;17.40;71.90
698;DHT22;331;48.414;9.938;2023-06-05T04:07:12;17.40;72.00
698;DHT22;331;48.414;9.938;2023-06-05T04:09:39;17.30;71.90
698;DHT22;331;48.414;9.938;2023-06-05T04:12:08;17.30;72.00
698;DHT22;331;48.414;9.938;2023-06-05T04:14:37;17.30;72.00
698;DHT22;331;48.414;9.938;2023-06-05T04:17:05;17.30;72.10
698;DHT22;331;48.414;9.938;2023-06-05T04:19:32;17.30;72.10
698;DHT22;331;48.414;9.938;2023-06-05T04:21:59;17.30;72.20
698;DHT22;331;48.414;9.938;2023-06-05T04:24:28;17.20;72.20
698;DHT22;331;48.414;9.938;2023-06-05T04:26:56;17.20;72.20
698;DHT22;331;48.414;9.938;2023-06-05T04:29:26;17.20;72.30
698;DHT22;331;48.414;9.938;2023-06-05T04:31:54;17.20;72.20
698;DHT22;331;48.414;9.938;2023-06-05T04:34:21;17.20;72.40
698;DHT22;331;48.414;9.938;2023-06-05T04:36:48;17.20;72.40
698;DHT22;331;48.414;9.938;2023-06-05T04:39:15;17.10;72.40
698;DHT22;331;48.414;9.938;2023-06-05T04:41:44;17.10;72.50
698;DHT22;331;48.414;9.938;2023-06-05T04:44:15;17.10;72.60
698;DHT22;331;48.414;9.938;2023-06-05T04:46:43;17.10;72.60
698;DHT22;331;48.414;9.938;2023-06-05T04:49:13;17.10;72.70
698;DHT22;331;48.414;9.938;2023-06-05T04:51:40;17.10;72.80
698;DHT22;331;48.414;9.938;2023-06-05T04:54:10;17.00;72.70
698;DHT22;331;48.414;9.938;2023-06-05T04:56:38;17.00;72.90
698;DHT22;331;48.414;9.938;2023-06-05T04:59:05;17.00;72.80
698;DHT22;331;48.414;9.938;2023-06-05T05:01:33;17.00;72.70
698;DHT22;331;48.414;9.938;2023-06-05T05:04:00;17.00;72.90
698;DHT22;331;48.414;9.938;2023-06-05T05:06:28;17.00;72.90
698;DHT22;331;48.414;9.938;2023-06-05T05:08:56;17.00;72.80
698;DHT22;331;48.414;9.938;2023-06-05T05:11:23;17.00;73.60
698;DHT22;331;48.414;9.938;2023-06-05T05:13:51;17.00;73.10
698;DHT22;331;48.414;9.938;2023-06-05T05:16:18;17.00;72.50
698;DHT22;331;48.414;9.938;2023-06-05T05:18:46;17.00;73.00
698;DHT22;331;48.414;9.938;2023-06-05T05:21:13;17.00;73.10
698;DHT22;331;48.414;9.938;2023-06-05T05:23:42;17.00;73.00
698;DHT22;331;48.414;9.938;2023-06-05T05:26:10;17.00;73.80
698;DHT22;331;48.414;9.938;2023-06-05T05:28:37;17.00;73.30
698;DHT22;331;48.414;9.938;2023-06-05T05:31:04;17.00;73.50
698;DHT22;331;48.414;9.938;2023-06-05T05:33:33;17.00;73.40
698;DHT22;331;48.414;9.938;2023-06-05T05:36:01;17.00;73.50
698;DHT22;331;48.414;9.938;2023-06-05T05:38:29;17.00;73.60
698;DHT22;331;48.414;9.938;2023-06-05T05:40:57;17.00;73.70
698;DHT22;331;48.414;9.938;2023-06-05T05:43:24;17.00;73.70
698;DHT22;331;48.414;9.938;2023-06-05T05:45:52;17.00;73.60
698;DHT22;331;48.414;9.938;2023-06-05T05:48:18;17.00;73.80
698;DHT22;331;48.414;9.938;2023-06-05T05:50:45;17.00;74.30
698;DHT22;331;48.414;9.938;2023-06-05T05:53:12;17.00;73.90
698;DHT22;331;48.414;9.938;2023-06-05T05:55:39;17.00;74.00
698;DHT22;331;48.414;9.938;2023-06-05T05:58:07;17.00;74.10
698;DHT22;331;48.414;9.938;2023-06-05T06:00:34;17.00;74.30
698;DHT22;331;48.414;9.938;2023-06-05T06:03:01;17.00;73.80
698;DHT22;331;48.414;9.938;2023-06-05T06:05:28;17.00;74.50
698;DHT22;331;48.414;9.938;2023-06-05T06:07:56;17.00;75.30
698;DHT22;331;48.414;9.938;2023-06-05T06:10:23;17.00;78.00
698;DHT22;331;48.414;9.938;2023-06-05T06:12:52;17.10;77.70
698;DHT22;331;48.414;9.938;2023-06-05T06:15:20;17.20;78.30
698;DHT22;331;48.414;9.938;2023-06-05T06:17:47;17.20;78.40
698;DHT22;331;48.414;9.938;2023-06-05T06:20:14;17.30;78.60
698;DHT22;331;48.414;9.938;2023-06-05T06:22:41;17.30;79.30
698;DHT22;331;48.414;9.938;2023-06-05T06:25:09;17.40;80.70
698;DHT22;331;48.414;9.938;2023-06-05T06:27:36;17.50;80.70
698;DHT22;331;48.414;9.938;2023-06-05T06:30:04;17.50;81.00
698;DHT22;331;48.414;9.938;2023-06-05T06:32:34;17.50;81.20
698;DHT22;331;48.414;9.938;2023-06-05T06:35:01;17.50;81.30
698;DHT22;331;48.414;9.938;2023-06-05T06:37:27;17.60;81.70
698;DHT22;331;48.414;9.938;2023-06-05T06:39:54;17.70;80.80
698;DHT22;331;48.414;9.938;2023-06-05T06:42:21;17.70;80.50
698;DHT22;331;48.414;9.938;2023-06-05T06:44:58;17.70;80.20
698;DHT22;331;48.414;9.938;2023-06-05T06:47:25;17.70;80.20
698;DHT22;331;48.414;9.938;2023-06-05T06:49:53;17.80;80.20
698;DHT22;331;48.414;9.938;2023-06-05T06:52:20;17.80;80.40
698;DHT22;331;48.414;9.938;2023-06-05T06:54:47;17.70;80.20
698;DHT22;331;48.414;9.938;2023-06-05T06:57:14;17.70;80.50
698;DHT22;331;48.414;9.938;2023-06-05T06:59:41;17.80;80.80
698;DHT22;331;48.414;9.938;2023-06-05T07:02:08;17.80;80.60
698;DHT22;331;48.414;9.938;2023-06-05T07:04:35;17.80;80.70
698;DHT22;331;48.414;9.938;2023-06-05T07:07:04;17.80;80.70
698;DHT22;331;48.414;9.938;2023-06-05T07:09:31;17.80;80.80
698;DHT22;331;48.414;9.938;2023-06-05T07:11:58;17.80;80.90
698;DHT22;331;48.414;9.938;2023-06-05T07:14:30;17.80;80.70
698;DHT22;331;48.414;9.938;2023-06-05T07:16:57;17.80;81.00
698;DHT22;331;48.414;9.938;2023-06-05T07:19:25;17.80;81.00
698;DHT22;331;48.414;9.938;2023-06-05T07:21:52;17.80;81.20
698;DHT22;331;48.414;9.938;2023-06-05T07:24:20;17.90;81.30
698;DHT22;331;48.414;9.938;2023-06-05T07:26:49;17.90;81.30
698;DHT22;331;48.414;9.938;2023-06-05T07:29:17;17.90;81.30
698;DHT22;331;48.414;9.938;2023-06-05T07:31:44;17.90;81.60
698;DHT22;331;48.414;9.938;2023-06-05T07:34:11;18.00;81.90
698;DHT22;331;48.414;9.938;2023-06-05T07:36:38;18.00;82.00
698;DHT22;331;48.414;9.938;2023-06-05T07:39:05;18.00;81.90
698;DHT22;331;48.414;9.938;2023-06-05T07:41:34;18.00;82.30
698;DHT22;331;48.414;9.938;2023-06-05T07:44:00;18.00;82.40
698;DHT22;331;48.414;9.938;2023-06-05T07:46:27;18.00;82.50
698;DHT22;331;48.414;9.938;2023-06-05T07:48:54;18.10;82.60
698;DHT22;331;48.414;9.938;2023-06-05T07:51:21;18.10;82.80
698;DHT22;331;48.414;9.938;2023-06-05T07:53:48;18.10;82.70
698;DHT22;331;48.414;9.938;2023-06-05T07:56:17;18.10;83.20
698;DHT22;331;48.414;9.938;2023-06-05T07:58:51;18.20;83.40
698;DHT22;331;48.414;9.938;2023-06-05T08:01:20;18.20;83.50
698;DHT22;331;48.414;9.938;2023-06-05T08:03:58;18.20;84.20
698;DHT22;331;48.414;9.938;2023-06-05T08:06:36;18.20;83.80
698;DHT22;331;48.414;9.938;2023-06-05T08:09:04;18.20;83.80
698;DHT22;331;48.414;9.938;2023-06-05T08:11:38;18.20;83.80
698;DHT22;331;48.414;9.938;2023-06-05T08:14:07;18.20;83.70
698;DHT22;331;48.414;9.938;2023-06-05T08:16:47;18.30;84.10
698;DHT22;331;48.414;9.938;2023-06-05T08:19:17;18.30;84.30
698;DHT22;331;48.414;9.938;2023-06-05T08:21:51;18.30;84.20
698;DHT22;331;48.414;9.938;2023-06-05T08:24:19;18.30;84.40
698;DHT22;331;48.414;9.938;2023-06-05T08:26:46;18.30;84.30
698;DHT22;331;48.414;9.938;2023-06-05T08:29:15;18.30;84.30
698;DHT22;331;48.414;9.938;2023-06-05T08:31:45;18.40;84.60
698;DHT22;331;48.414;9.938;2023-06-05T08:34:12;18.40;84.50
698;DHT22;331;48.414;9.938;2023-06-05T08:36:42;18.40;84.60
698;DHT22;331;48.414;9.938;2023-06-05T08:39:12;18.40;84.60
698;DHT22;331;48.414;9.938;2023-06-05T08:41:39;18.40;84.70
698;DHT22;331;48.414;9.938;2023-06-05T08:44:06;18.40;84.80
698;DHT22;331;48.414;9.938;2023-06-05T08:46:35;18.40;84.80
698;DHT22;331;48.414;9.938;2023-06-05T08:49:05;18.50;85.10
698;DHT22;331;48.414;9.938;2023-06-05T08:51:34;18.50;85.20
698;DHT22;331;48.414;9.938;2023-06-05T08:54:02;18.50;85.20
698;DHT22;331;48.414;9.938;2023-06-05T08:56:43;18.50;85.10
698;DHT22;331;48.414;9.938;2023-06-05T08:59:13;18.50;85.00
698;DHT22;331;48.414;9.938;2023-06-05T09:01:42;18.50;85.00
